createdAt,value
2023-05-05T00:01:43.442Z,61.19
2023-05-05T00:04:11.198Z,62.15
2023-05-05T00:06:38.682Z,64.24
2023-05-05T00:09:06.829Z,63.68
2023-05-05T00:11:34.525Z,62.89
2023-05-05T00:14:01.933Z,63.67
2023-05-05T00:16:29.474Z,64.39
2023-05-05T00:18:57.830Z,65.15
2023-05-05T00:21:25.334Z,66.89
2023-05-05T00:23:52.724Z,67.80
2023-05-05T00:26:21.242Z,64.70
2023-05-05T00:28:49.340Z,65.47
2023-05-05T00:31:16.923Z,65.08
2023-05-05T00:33:44.680Z,64.35
2023-05-05T00:36:12.306Z,63.49
2023-05-05T00:38:39.709Z,63.65
2023-05-05T00:41:07.621Z,63.96
2023-05-05T00:43:35.085Z,63.91
2023-05-05T00:46:06.560Z,64.64
2023-05-05T00:48:34.649Z,64.16
2023-05-05T00:51:02.334Z,65.33
2023-05-05T00:53:29.976Z,64.16
2023-05-05T00:55:58.051Z,66.09
2023-05-05T00:58:25.474Z,66.24
2023-05-05T01:00:53.177Z,66.38
2023-05-05T01:03:21.056Z,67.70
2023-05-05T01:06:15.618Z,68.91
2023-05-05T01:09:09.423Z,69.65
2023-05-05T01:12:02.369Z,69.53
2023-05-05T01:14:42.116Z,68.11
2023-05-05T01:17:17.353Z,66.30
2023-05-05T01:20:26.570Z,64.95
2023-05-05T01:23:00.558Z,64.72
2023-05-05T01:25:43.320Z,64.86
2023-05-05T01:28:24.430Z,65.42
2023-05-05T01:31:13.790Z,64.29
2023-05-05T01:33:46.416Z,65.33
2023-05-05T01:36:22.931Z,66.02
2023-05-05T01:38:57.223Z,68.29
2023-05-05T01:41:28.702Z,68.99
2023-05-05T01:43:57.349Z,67.76
2023-05-05T01:46:25.653Z,69.14
2023-05-05T01:48:54.036Z,68.87
2023-05-05T01:51:23.569Z,69.72
2023-05-05T01:53:57.579Z,70.14
2023-05-05T01:56:25.381Z,67.74
2023-05-05T01:58:54.125Z,69.08
2023-05-05T02:01:27.020Z,68.80
2023-05-05T02:03:59.087Z,69.03
2023-05-05T02:06:28.302Z,68.77
2023-05-05T02:08:58.400Z,69.05
2023-05-05T02:11:26.981Z,69.13
2023-05-05T02:13:54.717Z,69.37
2023-05-05T02:16:22.911Z,69.88
2023-05-05T02:18:50.744Z,70.99
2023-05-05T02:21:18.377Z,71.51
2023-05-05T02:23:51.550Z,72.31
2023-05-05T02:26:21.674Z,73.48
2023-05-05T02:29:07.574Z,72.32
2023-05-05T02:31:39.819Z,72.81
2023-05-05T02:34:08.218Z,72.70
2023-05-05T02:36:38.361Z,71.96
2023-05-05T02:39:18.159Z,71.37
2023-05-05T02:41:47.482Z,71.07
2023-05-05T02:44:17.137Z,71.77
2023-05-05T02:46:45.255Z,73.16
2023-05-05T02:49:12.915Z,72.67
2023-05-05T02:51:40.541Z,73.16
2023-05-05T02:54:09.014Z,73.50
2023-05-05T02:56:40.963Z,73.58
2023-05-05T02:59:31.932Z,74.88
2023-05-05T03:02:16.475Z,73.00
2023-05-05T03:05:06.620Z,74.16
2023-05-05T03:07:41.081Z,75.43
2023-05-05T03:10:10.940Z,75.92
2023-05-05T03:12:51.675Z,75.06
2023-05-05T03:15:23.063Z,76.01
2023-05-05T03:17:53.533Z,77.35
2023-05-05T03:20:22.665Z,76.64
2023-05-05T03:22:50.883Z,75.38
2023-05-05T03:25:18.659Z,74.57
2023-05-05T03:27:46.276Z,74.14
2023-05-05T03:30:15.258Z,74.80
2023-05-05T03:32:44.470Z,75.36
2023-05-05T03:35:12.100Z,76.09
2023-05-05T03:37:39.740Z,77.16
2023-05-05T03:40:08.208Z,78.13
2023-05-05T03:42:35.876Z,78.67
2023-05-05T03:45:03.488Z,78.08
2023-05-05T03:47:31.363Z,76.18
2023-05-05T03:50:00.704Z,74.01
2023-05-05T03:52:28.540Z,73.54
2023-05-05T03:54:56.336Z,72.94
2023-05-05T03:57:23.825Z,73.29
2023-05-05T03:59:51.309Z,74.40
2023-05-05T04:02:19.269Z,74.15
2023-05-05T04:04:47.123Z,76.45
2023-05-05T04:07:15.078Z,78.19
2023-05-05T04:09:44.713Z,77.97
2023-05-05T04:12:12.569Z,77.36
2023-05-05T04:14:40.455Z,76.54
2023-05-05T04:17:08.637Z,75.38
2023-05-05T04:19:36.604Z,73.15
2023-05-05T04:22:04.260Z,76.35
2023-05-05T04:24:31.793Z,76.96
2023-05-05T04:27:00.372Z,77.03
2023-05-05T04:29:28.898Z,73.25
2023-05-05T04:31:56.875Z,69.27
2023-05-05T04:34:24.808Z,68.40
2023-05-05T04:36:52.567Z,69.33
2023-05-05T04:39:20.378Z,71.39
2023-05-05T04:41:48.263Z,68.12
2023-05-05T04:44:15.907Z,70.88
2023-05-05T04:46:43.579Z,73.79
2023-05-05T04:49:11.357Z,74.01
2023-05-05T04:51:42.191Z,74.80
2023-05-05T04:54:09.650Z,75.42
2023-05-05T04:56:37.686Z,70.99
2023-05-05T04:59:05.195Z,68.39
2023-05-05T05:01:32.625Z,67.65
2023-05-05T05:04:00.537Z,66.77
2023-05-05T05:06:29.337Z,67.36
2023-05-05T05:08:57.131Z,68.46
2023-05-05T05:11:24.917Z,67.79
2023-05-05T05:13:53.106Z,70.19
2023-05-05T05:16:21.646Z,67.61
2023-05-05T05:18:49.432Z,69.11
2023-05-05T05:21:17.529Z,67.86
2023-05-05T05:23:45.023Z,66.39
2023-05-05T05:26:12.991Z,64.02
2023-05-05T05:28:41.676Z,65.88
2023-05-05T05:31:09.451Z,67.41
2023-05-05T05:33:37.275Z,65.19
2023-05-05T05:36:05.206Z,63.36
2023-05-05T05:38:32.672Z,64.12
2023-05-05T05:41:05.392Z,63.70
2023-05-05T05:43:33.786Z,61.00
2023-05-05T05:46:01.699Z,61.13
2023-05-05T05:48:29.673Z,60.51
2023-05-05T05:50:57.312Z,59.25
2023-05-05T05:53:25.333Z,60.11
2023-05-05T05:55:53.319Z,59.21
2023-05-05T05:58:20.889Z,58.59
2023-05-05T06:00:49.201Z,56.59
2023-05-05T06:03:17.332Z,56.63
2023-05-05T06:05:46.299Z,57.23
2023-05-05T06:08:14.289Z,56.59
2023-05-05T06:10:42.496Z,56.46
2023-05-05T06:13:10.649Z,55.75
2023-05-05T06:15:38.891Z,55.67
2023-05-05T06:18:06.908Z,54.32
2023-05-05T06:20:34.339Z,53.70
2023-05-05T06:23:01.819Z,53.59
2023-05-05T06:25:31.026Z,53.19
2023-05-05T06:27:58.696Z,52.98
2023-05-05T06:30:29.026Z,52.19
2023-05-05T06:32:57.005Z,53.50
2023-05-05T06:35:24.788Z,52.81
2023-05-05T06:37:52.163Z,52.11
2023-05-05T06:40:20.098Z,53.32
2023-05-05T06:42:47.673Z,54.12
2023-05-05T06:45:16.011Z,51.40
2023-05-05T06:47:44.819Z,50.44
2023-05-05T06:50:12.652Z,51.02
2023-05-05T06:52:40.032Z,50.46
2023-05-05T06:55:08.050Z,50.57
2023-05-05T06:57:35.815Z,49.41
2023-05-05T07:00:05.998Z,49.57
2023-05-05T07:02:34.020Z,48.57
2023-05-05T07:05:01.582Z,46.70
2023-05-05T07:07:31.757Z,44.65
2023-05-05T07:09:59.613Z,43.21
2023-05-05T07:12:29.449Z,42.67
2023-05-05T07:14:57.310Z,40.55
2023-05-05T07:17:25.542Z,40.62
2023-05-05T07:19:54.998Z,39.22
2023-05-05T07:22:22.630Z,39.41
2023-05-05T07:24:51.771Z,38.71
2023-05-05T07:27:20.473Z,39.22
2023-05-05T07:29:48.019Z,38.85
2023-05-05T07:32:15.727Z,37.29
2023-05-05T07:34:43.226Z,34.23
2023-05-05T07:37:10.931Z,32.96
2023-05-05T07:39:38.657Z,31.55
2023-05-05T07:42:07.407Z,29.26
2023-05-05T07:44:34.890Z,29.49
2023-05-05T07:47:02.606Z,30.42
2023-05-05T07:49:30.028Z,30.35
2023-05-05T07:51:57.456Z,28.99
2023-05-05T07:54:25.081Z,27.37
2023-05-05T07:56:52.671Z,29.09
2023-05-05T07:59:20.238Z,27.54
2023-05-05T08:01:47.913Z,27.00
2023-05-05T08:04:15.707Z,27.22
2023-05-05T08:06:43.222Z,25.10
2023-05-05T08:09:10.946Z,25.67
2023-05-05T08:11:39.280Z,25.20
2023-05-05T08:14:07.722Z,26.09
2023-05-05T08:16:35.394Z,23.63
2023-05-05T08:19:06.219Z,24.48
2023-05-05T08:21:37.338Z,24.48
2023-05-05T08:24:05.158Z,27.11
2023-05-05T08:26:32.557Z,27.77
2023-05-05T08:29:01.175Z,26.72
2023-05-05T08:31:33.177Z,26.47
2023-05-05T08:34:00.669Z,25.69
2023-05-05T08:36:29.036Z,29.06
2023-05-05T08:38:56.806Z,29.74
2023-05-05T08:41:24.097Z,30.19
2023-05-05T08:43:52.376Z,29.12
2023-05-05T08:46:20.117Z,28.71
2023-05-05T08:48:47.708Z,31.49
2023-05-05T08:51:21.519Z,32.13
2023-05-05T08:53:58.841Z,32.67
2023-05-05T08:56:27.437Z,33.29
2023-05-05T08:58:55.023Z,37.95
2023-05-05T09:01:22.804Z,37.71
2023-05-05T09:03:50.729Z,39.82
2023-05-05T09:06:20.519Z,39.96
2023-05-05T09:08:47.689Z,36.86
2023-05-05T09:11:14.857Z,38.48
2023-05-05T09:16:28.748Z,36.94
2023-05-05T09:19:03.445Z,38.74
2023-05-05T09:21:30.724Z,35.69
2023-05-05T09:24:11.026Z,34.71
2023-05-05T09:26:40.172Z,33.94
2023-05-05T09:29:07.727Z,33.50
2023-05-05T09:31:38.113Z,34.18
2023-05-05T09:34:15.630Z,36.06
2023-05-05T09:36:44.257Z,34.84
2023-05-05T09:39:11.636Z,34.48
2023-05-05T09:41:43.844Z,34.33
2023-05-05T09:44:12.664Z,33.79
2023-05-05T09:46:49.212Z,33.47
2023-05-05T09:49:20.636Z,35.04
2023-05-05T09:51:48.090Z,34.11
2023-05-05T09:54:24.867Z,33.18
2023-05-05T09:56:52.494Z,36.26
2023-05-05T09:59:19.785Z,34.92
2023-05-05T10:01:47.602Z,34.89
2023-05-05T10:04:25.072Z,33.25
2023-05-05T10:06:52.284Z,34.70
2023-05-05T10:09:19.767Z,34.27
2023-05-05T10:11:50.305Z,34.70
2023-05-05T10:14:18.173Z,34.67
2023-05-05T10:16:49.616Z,33.28
2023-05-05T10:19:17.653Z,33.93
2023-05-05T10:21:46.851Z,34.88
2023-05-05T10:24:16.667Z,36.82
2023-05-05T10:26:43.974Z,37.31
2023-05-05T10:29:13.834Z,37.17
2023-05-05T10:31:47.197Z,38.06
2023-05-05T10:34:27.297Z,36.41
2023-05-05T10:36:55.222Z,36.14
2023-05-05T10:39:22.489Z,37.41
2023-05-05T10:41:49.888Z,38.10
2023-05-05T10:44:17.593Z,39.05
2023-05-05T10:46:45.124Z,37.37
2023-05-05T10:49:26.865Z,36.95
2023-05-05T10:52:04.869Z,36.77
2023-05-05T10:54:32.685Z,34.58
2023-05-05T10:57:02.631Z,32.21
2023-05-05T10:59:35.693Z,32.36
2023-05-05T11:02:18.552Z,33.59
2023-05-05T11:05:03.131Z,32.79
2023-05-05T11:07:30.796Z,32.38
2023-05-05T11:09:58.860Z,33.85
2023-05-05T11:12:26.154Z,33.38
2023-05-05T11:15:12.398Z,32.19
2023-05-05T11:17:49.375Z,33.67
2023-05-05T11:20:16.978Z,34.27
2023-05-05T11:23:02.397Z,33.15
2023-05-05T11:25:33.039Z,33.57
2023-05-05T11:28:06.957Z,34.36
2023-05-05T11:30:35.113Z,34.24
2023-05-05T11:33:21.224Z,35.28
2023-05-05T11:35:58.743Z,35.58
2023-05-05T11:38:48.372Z,37.30
2023-05-05T11:41:28.303Z,37.99
2023-05-05T11:44:17.480Z,36.67
2023-05-05T11:49:55.674Z,36.58
2023-05-05T11:52:26.466Z,35.11
2023-05-05T11:54:53.808Z,34.53
2023-05-05T11:57:33.800Z,33.69
2023-05-05T12:00:01.408Z,37.06
2023-05-05T12:02:29.933Z,36.40
2023-05-05T12:04:58.210Z,35.57
2023-05-05T12:07:26.419Z,35.10
2023-05-05T12:09:53.741Z,32.04
2023-05-05T12:12:21.340Z,35.95
2023-05-05T12:14:52.653Z,34.90
2023-05-05T12:17:20.652Z,33.74
2023-05-05T12:19:51.942Z,31.95
2023-05-05T12:22:23.124Z,30.88
2023-05-05T12:24:55.078Z,32.97
2023-05-05T12:27:22.573Z,33.69
2023-05-05T12:29:50.147Z,31.32
2023-05-05T12:32:21.129Z,31.81
2023-05-05T12:34:48.811Z,32.43
2023-05-05T12:37:16.943Z,32.97
2023-05-05T12:39:44.665Z,33.91
2023-05-05T12:42:11.830Z,33.63
2023-05-05T12:44:39.294Z,30.90
2023-05-05T12:47:07.148Z,32.16
2023-05-05T12:49:52.853Z,31.50
2023-05-05T12:52:21.107Z,31.48
2023-05-05T12:55:06.629Z,30.26
2023-05-05T12:57:34.144Z,29.63
2023-05-05T13:00:01.599Z,30.76
2023-05-05T13:02:35.374Z,32.24
2023-05-05T13:05:03.033Z,29.64
2023-05-05T13:07:30.228Z,30.29
2023-05-05T13:10:07.367Z,29.48
2023-05-05T13:12:34.930Z,30.11
2023-05-05T13:15:02.131Z,29.67
2023-05-05T13:17:29.437Z,29.77
2023-05-05T13:19:57.174Z,30.84
2023-05-05T13:22:24.476Z,30.96
2023-05-05T13:25:07.262Z,30.58
2023-05-05T13:27:34.913Z,30.97
2023-05-05T13:30:02.134Z,32.55
2023-05-05T13:32:29.334Z,31.37
2023-05-05T13:34:57.911Z,29.20
2023-05-05T13:37:25.652Z,29.62
2023-05-05T13:39:53.035Z,30.04
2023-05-05T13:42:20.558Z,30.31
2023-05-05T13:44:47.834Z,31.10
2023-05-05T13:47:15.201Z,31.66
2023-05-05T13:49:42.895Z,33.43
2023-05-05T13:52:10.102Z,29.87
2023-05-05T13:54:37.639Z,31.48
2023-05-05T13:57:07.954Z,31.37
2023-05-05T13:59:35.284Z,32.92
2023-05-05T14:02:02.529Z,33.07
2023-05-05T14:04:30.176Z,33.37
2023-05-05T14:06:58.539Z,33.99
2023-05-05T14:09:25.798Z,34.20
2023-05-05T14:11:53.553Z,34.87
2023-05-05T14:14:20.787Z,35.20
2023-05-05T14:16:50.039Z,33.49
2023-05-05T14:19:17.888Z,31.25
2023-05-05T14:21:45.038Z,31.07
2023-05-05T14:24:12.325Z,32.34
2023-05-05T14:26:39.833Z,30.63
2023-05-05T14:29:08.008Z,31.22
2023-05-05T14:31:36.294Z,32.75
2023-05-05T14:34:03.841Z,30.52
2023-05-05T14:36:31.356Z,29.84
2023-05-05T14:38:58.619Z,30.64
2023-05-05T14:41:26.283Z,30.95
2023-05-05T14:43:53.481Z,30.91
2023-05-05T14:46:20.734Z,30.70
2023-05-05T14:48:48.428Z,30.88
2023-05-05T14:51:15.989Z,30.50
2023-05-05T14:53:43.231Z,31.76
2023-05-05T14:56:10.691Z,31.21
2023-05-05T14:58:38.148Z,31.70
2023-05-05T15:01:05.473Z,29.45
2023-05-05T15:03:33.014Z,29.32
2023-05-05T15:06:00.310Z,28.35
2023-05-05T15:08:27.483Z,29.88
2023-05-05T15:10:54.948Z,30.04
2023-05-05T15:13:22.248Z,29.57
2023-05-05T15:15:50.310Z,28.90
2023-05-05T15:18:17.836Z,32.45
2023-05-05T15:20:45.019Z,32.03
2023-05-05T15:23:12.710Z,31.80
2023-05-05T15:25:42.797Z,31.86
2023-05-05T15:28:09.965Z,32.71
2023-05-05T15:30:37.275Z,31.51
2023-05-05T15:33:04.856Z,32.62
2023-05-05T15:35:32.159Z,31.92
2023-05-05T15:37:59.414Z,31.17
2023-05-05T15:40:26.981Z,29.70
2023-05-05T15:42:54.170Z,29.63
2023-05-05T15:45:21.401Z,30.33
2023-05-05T15:47:50.471Z,30.77
2023-05-05T15:50:17.841Z,31.11
2023-05-05T15:52:45.026Z,30.99
2023-05-05T15:55:12.640Z,29.02
2023-05-05T15:57:40.435Z,29.96
2023-05-05T16:00:08.103Z,30.90
2023-05-05T16:02:35.395Z,31.77
2023-05-05T16:05:03.042Z,31.84
2023-05-05T16:07:30.516Z,31.53
2023-05-05T16:09:57.968Z,31.31
2023-05-05T16:12:25.894Z,32.27
2023-05-05T16:14:55.830Z,31.62
2023-05-05T16:17:23.137Z,31.47
2023-05-05T16:19:50.680Z,31.36
2023-05-05T16:25:09.559Z,29.44
2023-05-05T16:27:43.337Z,29.35
2023-05-05T16:30:21.694Z,29.35
2023-05-05T16:32:51.306Z,30.06
2023-05-05T16:35:21.178Z,30.21
2023-05-05T16:37:48.927Z,30.58
2023-05-05T16:40:16.754Z,30.08
2023-05-05T16:42:45.301Z,29.90
2023-05-05T16:45:12.914Z,30.02
2023-05-05T16:47:43.160Z,30.98
2023-05-05T16:50:21.722Z,31.99
2023-05-05T16:52:49.914Z,32.77
2023-05-05T16:55:24.427Z,31.97
2023-05-05T17:01:04.160Z,31.12
2023-05-05T17:03:31.325Z,31.64
2023-05-05T17:05:58.884Z,31.11
2023-05-05T17:08:26.175Z,30.96
2023-05-05T17:10:53.348Z,31.01
2023-05-05T17:13:21.017Z,32.07
2023-05-05T17:15:48.356Z,31.48
2023-05-05T17:18:15.802Z,31.48
2023-05-05T17:20:43.277Z,31.97
2023-05-05T17:23:10.713Z,31.52
2023-05-05T17:25:38.306Z,31.85
2023-05-05T17:28:07.452Z,32.82
2023-05-05T17:30:34.652Z,32.94
2023-05-05T17:33:01.892Z,33.32
2023-05-05T17:35:29.750Z,33.83
2023-05-05T17:37:56.968Z,34.44
2023-05-05T17:40:24.223Z,34.95
2023-05-05T17:42:51.735Z,35.10
2023-05-05T17:45:19.011Z,34.57
2023-05-05T17:47:46.348Z,34.93
2023-05-05T17:50:13.825Z,35.95
2023-05-05T17:52:41.203Z,37.24
2023-05-05T17:55:08.829Z,37.52
2023-05-05T17:57:36.538Z,38.83
2023-05-05T18:00:06.863Z,38.06
2023-05-05T18:02:40.559Z,38.35
2023-05-05T18:05:09.132Z,39.02
2023-05-05T18:07:36.432Z,40.12
2023-05-05T18:10:03.715Z,39.78
2023-05-05T18:12:31.389Z,41.00
2023-05-05T18:14:58.566Z,41.47
2023-05-05T18:17:26.271Z,41.62
2023-05-05T18:19:53.714Z,41.78
2023-05-05T18:22:21.818Z,42.10
2023-05-05T18:24:49.097Z,43.27
2023-05-05T18:27:16.602Z,43.31
2023-05-05T18:29:43.761Z,43.62
2023-05-05T18:32:11.339Z,43.30
2023-05-05T18:34:38.782Z,44.22
2023-05-05T18:37:06.099Z,44.25
2023-05-05T18:39:33.258Z,43.70
2023-05-05T18:42:00.893Z,44.53
2023-05-05T18:44:28.199Z,45.21
2023-05-05T18:46:55.446Z,44.77
2023-05-05T18:49:23.334Z,44.53
2023-05-05T18:51:50.538Z,45.69
2023-05-05T18:54:17.773Z,46.75
2023-05-05T18:56:45.301Z,46.84
2023-05-05T18:59:12.477Z,45.96
2023-05-05T19:01:39.726Z,47.58
2023-05-05T19:04:15.530Z,48.29
2023-05-05T19:06:52.449Z,47.02
2023-05-05T19:09:20.171Z,46.93
2023-05-05T19:11:47.365Z,49.70
2023-05-05T19:14:14.533Z,49.58
2023-05-05T19:16:42.157Z,51.80
2023-05-05T19:19:10.870Z,50.86
2023-05-05T19:21:38.348Z,52.21
2023-05-05T19:24:07.268Z,50.88
2023-05-05T19:26:34.456Z,50.91
2023-05-05T19:29:01.742Z,53.77
2023-05-05T19:31:30.913Z,55.39
2023-05-05T19:33:59.849Z,56.87
2023-05-05T19:36:27.778Z,57.71
2023-05-05T19:38:55.511Z,58.98
2023-05-05T19:41:22.686Z,60.05
2023-05-05T19:43:50.367Z,61.29
2023-05-05T19:46:18.659Z,61.90
2023-05-05T19:48:46.246Z,62.64
2023-05-05T19:51:13.431Z,61.58
2023-05-05T19:53:42.841Z,61.50
2023-05-05T19:56:10.324Z,62.22
2023-05-05T19:58:53.644Z,62.91
2023-05-05T20:01:21.366Z,64.02
2023-05-05T20:03:49.044Z,64.22
2023-05-05T20:06:16.461Z,64.58
2023-05-05T20:08:43.660Z,64.61
2023-05-05T20:11:11.128Z,64.58
2023-05-05T20:13:39.062Z,64.39
2023-05-05T20:16:06.379Z,65.14
2023-05-05T20:18:33.933Z,65.97
2023-05-05T20:21:01.635Z,66.54
2023-05-05T20:23:28.832Z,66.63
2023-05-05T20:25:56.734Z,67.04
2023-05-05T20:28:23.926Z,67.77
2023-05-05T20:30:51.411Z,67.98
2023-05-05T20:33:18.872Z,67.60
2023-05-05T20:35:47.325Z,68.56
2023-05-05T20:38:14.576Z,68.79
2023-05-05T20:40:42.102Z,68.82
2023-05-05T20:43:09.250Z,69.45
2023-05-05T20:45:37.170Z,69.42
2023-05-05T20:48:05.493Z,68.84
2023-05-05T20:50:32.824Z,69.41
2023-05-05T20:53:00.055Z,69.98
2023-05-05T20:55:27.554Z,69.57
2023-05-05T20:57:55.001Z,69.80
2023-05-05T21:00:22.284Z,69.75
2023-05-05T21:02:49.893Z,70.28
2023-05-05T21:05:17.244Z,70.51
2023-05-05T21:07:44.861Z,69.88
2023-05-05T21:10:12.552Z,70.20
2023-05-05T21:12:40.311Z,71.53
2023-05-05T21:15:08.368Z,71.06
2023-05-05T21:17:36.011Z,71.83
2023-05-05T21:20:03.378Z,71.66
2023-05-05T21:22:30.771Z,72.06
2023-05-05T21:25:10.091Z,72.90
2023-05-05T21:27:37.298Z,72.79
2023-05-05T21:30:05.174Z,73.73
2023-05-05T21:32:32.375Z,74.28
2023-05-05T21:34:59.627Z,74.97
2023-05-05T21:37:27.067Z,75.81
2023-05-05T21:39:54.293Z,75.85
2023-05-05T21:42:21.477Z,74.96
2023-05-05T21:44:48.909Z,75.45
2023-05-05T21:47:16.355Z,75.73
2023-05-05T21:49:43.518Z,75.63
2023-05-05T21:52:11.058Z,75.06
2023-05-05T21:54:38.272Z,75.28
2023-05-05T21:57:05.489Z,75.13
2023-05-05T21:59:33.026Z,75.07
2023-05-05T22:02:00.755Z,74.22
2023-05-05T22:04:28.149Z,74.26
2023-05-05T22:06:55.376Z,71.33
2023-05-05T22:09:22.605Z,72.53
2023-05-05T22:11:50.429Z,74.08
2023-05-05T22:14:17.601Z,74.32
2023-05-05T22:16:44.876Z,74.25
2023-05-05T22:19:12.423Z,74.07
2023-05-05T22:21:39.675Z,75.33
2023-05-05T22:24:07.309Z,75.75
2023-05-05T22:26:35.268Z,75.98
2023-05-05T22:29:02.516Z,76.79
2023-05-05T22:31:30.824Z,77.09
2023-05-05T22:33:58.809Z,76.53
2023-05-05T22:36:26.043Z,75.45
2023-05-05T22:38:53.201Z,74.89
2023-05-05T22:41:21.169Z,74.16
2023-05-05T22:43:49.259Z,73.96
2023-05-05T22:46:16.417Z,74.12
2023-05-05T22:48:43.928Z,74.11
2023-05-05T22:51:11.578Z,74.69
2023-05-05T22:53:38.826Z,74.02
2023-05-05T22:56:06.447Z,75.15
2023-05-05T22:58:33.630Z,75.86
2023-05-05T23:01:00.776Z,76.62
2023-05-05T23:03:28.289Z,78.17
2023-05-05T23:05:55.514Z,78.50
2023-05-05T23:08:24.073Z,78.28
2023-05-05T23:10:51.584Z,78.80
2023-05-05T23:13:18.772Z,78.62
2023-05-05T23:15:46.112Z,79.39
2023-05-05T23:18:13.512Z,78.91
2023-05-05T23:20:40.771Z,77.83
2023-05-05T23:23:08.010Z,78.16
2023-05-05T23:25:35.679Z,79.36
2023-05-05T23:28:02.950Z,80.44
2023-05-05T23:30:32.483Z,81.24
2023-05-05T23:33:01.244Z,80.80
2023-05-05T23:35:28.630Z,80.95
2023-05-05T23:37:55.833Z,80.89
2023-05-05T23:40:23.277Z,82.15
2023-05-05T23:42:50.676Z,82.18
2023-05-05T23:45:19.345Z,81.83
2023-05-05T23:47:47.293Z,82.34
2023-05-05T23:50:14.478Z,83.34
2023-05-05T23:52:41.861Z,83.50
2023-05-05T23:55:10.253Z,84.11
2023-05-05T23:57:37.657Z,83.52
